createdAt,value
2018-12-17T00:02:11.980Z,-1.00
2018-12-17T00:04:37.812Z,-1.02
2018-12-17T00:07:03.670Z,-1.00
2018-12-17T00:09:29.405Z,-0.98
2018-12-17T00:11:55.166Z,-0.96
2018-12-17T00:14:20.904Z,-0.99
2018-12-17T00:16:46.732Z,-0.99
2018-12-17T00:19:12.575Z,-1.05
2018-12-17T00:21:38.310Z,-1.04
2018-12-17T00:24:04.056Z,-1.03
2018-12-17T00:26:29.791Z,-1.03
2018-12-17T00:28:55.565Z,-1.02
2018-12-17T00:31:21.303Z,-0.99
2018-12-17T00:33:47.167Z,-0.97
2018-12-17T00:36:12.922Z,-0.98
2018-12-17T00:38:38.784Z,-0.94
2018-12-17T00:41:04.791Z,-0.95
2018-12-17T00:43:30.951Z,-0.93
2018-12-17T00:45:56.695Z,-0.91
2018-12-17T00:48:22.651Z,-0.93
2018-12-17T00:50:48.385Z,-0.91
2018-12-17T00:53:14.122Z,-0.90
2018-12-17T00:55:39.960Z,-0.91
2018-12-17T00:58:05.814Z,-0.92
2018-12-17T01:00:31.550Z,-0.89
2018-12-17T01:02:57.535Z,-0.94
2018-12-17T01:05:23.375Z,-0.95
2018-12-17T01:07:49.203Z,-0.96
2018-12-17T01:10:15.042Z,-0.97
2018-12-17T01:12:40.784Z,-0.93
2018-12-17T01:15:06.841Z,-0.94
2018-12-17T01:17:32.683Z,-0.94
2018-12-17T01:19:58.449Z,-0.93
2018-12-17T01:22:24.184Z,-0.94
2018-12-17T01:24:49.942Z,-0.98
2018-12-17T01:27:15.794Z,-0.96
2018-12-17T01:29:41.539Z,-0.95
2018-12-17T01:32:07.376Z,-0.99
2018-12-17T01:34:33.108Z,-0.99
2018-12-17T01:36:58.934Z,-0.97
2018-12-17T01:39:24.708Z,-0.98
2018-12-17T01:41:50.445Z,-1.00
2018-12-17T01:44:16.199Z,-1.02
2018-12-17T01:46:41.945Z,-1.01
2018-12-17T01:49:07.698Z,-1.02
2018-12-17T01:51:33.548Z,-1.01
2018-12-17T01:53:59.287Z,-0.99
2018-12-17T01:56:25.054Z,-0.98
2018-12-17T01:58:50.786Z,-0.99
2018-12-17T02:01:16.530Z,-1.04
2018-12-17T02:03:42.295Z,-1.06
2018-12-17T02:06:08.147Z,-1.07
2018-12-17T02:08:34.020Z,-1.10
2018-12-17T02:10:59.980Z,-1.17
2018-12-17T02:13:25.716Z,-1.17
2018-12-17T02:15:51.564Z,-1.11
2018-12-17T02:18:17.403Z,-1.07
2018-12-17T02:20:43.163Z,-1.09
2018-12-17T02:23:08.903Z,-1.09
2018-12-17T02:25:34.658Z,-1.09
2018-12-17T02:28:00.587Z,-1.10
2018-12-17T02:30:26.320Z,-1.15
2018-12-17T02:32:52.170Z,-1.11
2018-12-17T02:35:18.056Z,-1.13
2018-12-17T02:37:43.828Z,-1.09
2018-12-17T02:40:09.583Z,-1.07
2018-12-17T02:42:35.388Z,-1.05
2018-12-17T02:45:01.487Z,-1.10
2018-12-17T02:47:27.210Z,-1.08
2018-12-17T02:49:52.959Z,-1.03
2018-12-17T02:52:18.700Z,-1.06
2018-12-17T02:54:51.320Z,-1.09
2018-12-17T02:57:17.077Z,-1.10
2018-12-17T02:59:42.836Z,-1.03
2018-12-17T03:02:08.804Z,-1.09
2018-12-17T03:04:34.624Z,-1.08
2018-12-17T03:07:00.368Z,-1.05
2018-12-17T03:09:26.101Z,-1.07
2018-12-17T03:11:51.944Z,-1.07
2018-12-17T03:14:17.694Z,-1.06
2018-12-17T03:16:43.449Z,-1.01
2018-12-17T03:19:09.194Z,-1.11
2018-12-17T03:21:35.050Z,-1.13
2018-12-17T03:24:01.009Z,-1.13
2018-12-17T03:26:26.943Z,-1.09
2018-12-17T03:28:52.696Z,-1.09
2018-12-17T03:31:18.449Z,-1.02
2018-12-17T03:33:44.392Z,-1.05
2018-12-17T03:36:10.147Z,-1.13
2018-12-17T03:38:35.898Z,-1.08
2018-12-17T03:41:01.966Z,-1.09
2018-12-17T03:43:27.706Z,-1.03
2018-12-17T03:45:53.560Z,-1.04
2018-12-17T03:48:19.431Z,-1.07
2018-12-17T03:50:45.423Z,-1.06
2018-12-17T03:53:11.167Z,-1.04
2018-12-17T03:55:36.899Z,-1.07
2018-12-17T03:58:02.776Z,-1.03
2018-12-17T04:00:28.515Z,-1.01
2018-12-17T04:02:54.281Z,-0.98
2018-12-17T04:05:20.021Z,-0.97
2018-12-17T04:07:45.760Z,-0.96
2018-12-17T04:10:11.693Z,-0.91
2018-12-17T04:12:37.527Z,-0.93
2018-12-17T04:15:04.457Z,-1.00
2018-12-17T04:17:30.191Z,-1.01
2018-12-17T04:19:56.014Z,-1.03
2018-12-17T04:22:21.838Z,-1.01
2018-12-17T04:24:47.570Z,-1.02
2018-12-17T04:27:13.304Z,-1.04
2018-12-17T04:29:39.055Z,-1.04
2018-12-17T04:32:04.801Z,-1.06
2018-12-17T04:34:30.665Z,-1.04
2018-12-17T04:36:56.389Z,-1.05
2018-12-17T04:39:22.328Z,-1.01
2018-12-17T04:41:48.047Z,-1.04
2018-12-17T04:44:13.782Z,-1.03
2018-12-17T04:46:39.495Z,-1.03
2018-12-17T04:49:05.219Z,-1.06
2018-12-17T04:51:31.160Z,-1.05
2018-12-17T04:53:56.893Z,-1.02
2018-12-17T04:56:22.810Z,-1.00
2018-12-17T04:58:48.534Z,-0.94
2018-12-17T05:01:14.246Z,-0.95
2018-12-17T05:03:39.976Z,-1.01
2018-12-17T05:06:05.794Z,-0.99
2018-12-17T05:08:31.630Z,-0.94
2018-12-17T05:10:57.351Z,-0.96
2018-12-17T05:13:23.079Z,-0.93
2018-12-17T05:15:48.799Z,-0.93
2018-12-17T05:18:14.519Z,-0.96
2018-12-17T05:20:40.243Z,-0.94
2018-12-17T05:23:05.984Z,-0.98
2018-12-17T05:25:31.720Z,-0.97
2018-12-17T05:27:57.462Z,-0.99
2018-12-17T05:30:23.182Z,-1.01
2018-12-17T05:32:48.911Z,-1.05
2018-12-17T05:35:14.658Z,-1.05
2018-12-17T05:37:40.383Z,-1.04
2018-12-17T05:40:06.414Z,-1.02
2018-12-17T05:42:32.135Z,-1.01
2018-12-17T05:44:57.876Z,-0.97
2018-12-17T05:47:23.603Z,-0.95
2018-12-17T05:49:49.340Z,-0.99
2018-12-17T05:52:15.159Z,-0.98
2018-12-17T05:54:40.997Z,-0.98
2018-12-17T05:57:06.718Z,-1.05
2018-12-17T05:59:32.446Z,-1.05
2018-12-17T06:01:58.174Z,-1.00
2018-12-17T06:04:23.991Z,-0.98
2018-12-17T06:06:49.715Z,-0.94
2018-12-17T06:09:22.594Z,-0.97
2018-12-17T06:11:48.519Z,-0.98
2018-12-17T06:14:14.243Z,-1.01
2018-12-17T06:16:39.959Z,-1.03
2018-12-17T06:19:05.777Z,-0.98
2018-12-17T06:21:31.507Z,-1.01
2018-12-17T06:23:57.255Z,-1.03
2018-12-17T06:26:23.090Z,-0.99
2018-12-17T06:28:48.811Z,-0.95
2018-12-17T06:31:14.634Z,-0.99
2018-12-17T06:33:40.447Z,-1.05
2018-12-17T06:36:06.271Z,-0.97
2018-12-17T06:38:31.994Z,-0.95
2018-12-17T06:40:57.827Z,-0.92
2018-12-17T06:43:23.551Z,-0.96
2018-12-17T06:45:49.287Z,-0.99
2018-12-17T06:48:17.209Z,-0.98
2018-12-17T06:50:42.842Z,-0.98
2018-12-17T06:53:08.575Z,-0.97
2018-12-17T06:55:34.399Z,-0.94
2018-12-17T06:58:00.525Z,-0.94
2018-12-17T07:00:26.293Z,-0.93
2018-12-17T07:02:52.075Z,-0.94
2018-12-17T07:05:17.897Z,-0.94
2018-12-17T07:07:43.621Z,-0.92
2018-12-17T07:10:09.455Z,-0.87
2018-12-17T07:12:35.182Z,-0.84
2018-12-17T07:15:00.990Z,-0.88
2018-12-17T07:17:26.819Z,-0.86
2018-12-17T07:19:54.137Z,-0.89
2018-12-17T07:22:20.098Z,-0.88
2018-12-17T07:24:45.818Z,-0.90
2018-12-17T07:27:11.599Z,-0.82
2018-12-17T07:29:37.422Z,-0.82
2018-12-17T07:32:03.375Z,-0.89
2018-12-17T07:34:29.311Z,-0.87
2018-12-17T07:36:55.964Z,-0.85
2018-12-17T07:39:21.798Z,-0.79
2018-12-17T07:41:47.638Z,-0.82
2018-12-17T07:44:13.466Z,-0.80
2018-12-17T07:46:39.267Z,-0.77
2018-12-17T07:49:05.107Z,-0.78
2018-12-17T07:51:30.889Z,-0.72
2018-12-17T07:53:56.686Z,-0.69
2018-12-17T07:56:22.515Z,-0.72
2018-12-17T07:58:48.359Z,-0.81
2018-12-17T08:01:14.112Z,-0.82
2018-12-17T08:03:39.831Z,-0.77
2018-12-17T08:06:05.669Z,-0.71
2018-12-17T08:08:35.371Z,-0.67
2018-12-17T08:10:59.243Z,-0.66
2018-12-17T08:13:25.075Z,-0.67
2018-12-17T08:15:50.795Z,-0.68
2018-12-17T08:18:20.879Z,-0.69
2018-12-17T08:20:47.498Z,-0.77
2018-12-17T08:23:13.330Z,-0.81
2018-12-17T08:25:39.057Z,-0.75
2018-12-17T08:28:04.899Z,-0.64
2018-12-17T08:30:30.718Z,-0.59
2018-12-17T08:32:56.447Z,-0.62
2018-12-17T08:35:22.162Z,-0.60
2018-12-17T08:37:47.914Z,-0.62
2018-12-17T08:40:13.649Z,-0.58
2018-12-17T08:42:39.379Z,-0.58
2018-12-17T08:45:05.254Z,-0.57
2018-12-17T08:47:30.995Z,-0.55
2018-12-17T08:49:56.710Z,-0.61
2018-12-17T08:52:22.458Z,-0.61
2018-12-17T08:54:48.486Z,-0.62
2018-12-17T08:57:14.221Z,-0.55
2018-12-17T08:59:39.937Z,-0.50
2018-12-17T09:02:05.765Z,-0.42
2018-12-17T09:04:31.589Z,-0.47
2018-12-17T09:06:57.298Z,-0.40
2018-12-17T09:09:23.068Z,-0.40
2018-12-17T09:11:48.910Z,-0.36
2018-12-17T09:14:14.637Z,-0.29
2018-12-17T09:16:40.379Z,-0.32
2018-12-17T09:19:08.136Z,-0.29
2018-12-17T09:21:33.870Z,-0.29
2018-12-17T09:23:59.699Z,-0.29
2018-12-17T09:26:25.542Z,-0.27
2018-12-17T09:28:51.263Z,-0.24
2018-12-17T09:31:16.983Z,-0.20
2018-12-17T09:33:42.999Z,-0.21
2018-12-17T09:36:08.822Z,-0.24
2018-12-17T09:38:34.555Z,-0.25
2018-12-17T09:41:00.396Z,-0.22
2018-12-17T09:43:26.127Z,-0.21
2018-12-17T09:45:51.962Z,-0.25
2018-12-17T09:48:17.835Z,-0.25
2018-12-17T09:50:43.554Z,-0.23
2018-12-17T09:53:09.376Z,-0.25
2018-12-17T09:55:36.361Z,-0.18
2018-12-17T09:58:02.544Z,-0.13
2018-12-17T10:00:28.284Z,-0.09
2018-12-17T10:02:54.059Z,-0.10
2018-12-17T10:05:19.887Z,0.00
2018-12-17T10:07:45.638Z,-0.04
2018-12-17T10:10:11.467Z,0.01
2018-12-17T10:12:37.183Z,0.05
2018-12-17T10:15:03.816Z,0.06
2018-12-17T10:17:29.538Z,0.11
2018-12-17T10:19:55.271Z,0.12
2018-12-17T10:22:20.997Z,0.25
2018-12-17T10:24:46.846Z,0.18
2018-12-17T10:27:12.670Z,0.26
2018-12-17T10:29:38.506Z,0.23
2018-12-17T10:32:04.347Z,0.20
2018-12-17T10:34:30.197Z,0.23
2018-12-17T10:36:55.918Z,0.30
2018-12-17T10:39:21.739Z,0.39
2018-12-17T10:41:48.142Z,0.44
2018-12-17T10:44:14.220Z,0.45
2018-12-17T10:46:39.979Z,0.35
2018-12-17T10:49:05.711Z,0.33
2018-12-17T10:51:32.137Z,0.33
2018-12-17T10:53:57.883Z,0.36
2018-12-17T10:56:23.632Z,0.35
2018-12-17T10:58:49.351Z,0.32
2018-12-17T11:01:21.469Z,0.37
2018-12-17T11:03:49.538Z,0.38
2018-12-17T11:06:16.731Z,0.42
2018-12-17T11:08:42.646Z,0.47
2018-12-17T11:11:08.374Z,0.47
2018-12-17T11:13:34.712Z,0.43
2018-12-17T11:16:01.177Z,0.42
2018-12-17T11:18:27.035Z,0.43
2018-12-17T11:20:52.767Z,0.44
2018-12-17T11:23:18.617Z,0.47
2018-12-17T11:25:44.433Z,0.56
2018-12-17T11:28:10.254Z,0.58
2018-12-17T11:30:36.315Z,0.59
2018-12-17T11:33:02.036Z,0.59
2018-12-17T11:35:27.888Z,0.62
2018-12-17T11:37:53.615Z,0.63
2018-12-17T11:40:19.339Z,0.61
2018-12-17T11:42:45.327Z,0.56
2018-12-17T11:45:11.199Z,0.58
2018-12-17T11:47:36.928Z,0.58
2018-12-17T11:50:04.279Z,0.61
2018-12-17T11:52:30.001Z,0.62
2018-12-17T11:54:55.851Z,0.59
2018-12-17T11:57:27.479Z,0.62
2018-12-17T11:59:53.247Z,0.65
2018-12-17T12:02:19.074Z,0.61
2018-12-17T12:04:44.806Z,0.57
2018-12-17T12:07:10.533Z,0.65
2018-12-17T12:09:36.260Z,0.62
2018-12-17T12:12:02.086Z,0.57
2018-12-17T12:14:27.806Z,0.53
2018-12-17T12:16:53.536Z,0.63
2018-12-17T12:19:19.272Z,0.63
2018-12-17T12:21:45.004Z,0.64
2018-12-17T12:24:10.723Z,0.60
2018-12-17T12:26:36.433Z,0.60
2018-12-17T12:29:02.276Z,0.66
2018-12-17T12:31:28.006Z,0.66
2018-12-17T12:33:53.824Z,0.67
2018-12-17T12:36:19.570Z,0.62
2018-12-17T12:38:45.407Z,0.57
2018-12-17T12:41:11.240Z,0.58
2018-12-17T12:43:37.071Z,0.56
2018-12-17T12:46:02.897Z,0.53
2018-12-17T12:48:28.620Z,0.51
2018-12-17T12:50:54.351Z,0.52
2018-12-17T12:55:52.709Z,0.58
2018-12-17T12:58:18.437Z,0.72
2018-12-17T13:00:44.159Z,0.87
2018-12-17T13:03:09.890Z,0.89
2018-12-17T13:05:35.621Z,0.90
2018-12-17T13:08:01.347Z,0.82
2018-12-17T13:10:27.170Z,0.76
2018-12-17T13:12:53.027Z,0.79
2018-12-17T13:15:18.946Z,0.89
2018-12-17T13:17:45.598Z,0.89
2018-12-17T13:20:11.628Z,0.86
2018-12-17T13:22:37.453Z,0.80
2018-12-17T13:25:04.186Z,0.87
2018-12-17T13:27:29.914Z,0.87
2018-12-17T13:29:55.623Z,0.91
2018-12-17T13:32:21.351Z,0.97
2018-12-17T13:34:47.095Z,0.95
2018-12-17T13:37:12.818Z,0.96
2018-12-17T13:39:38.838Z,0.96
2018-12-17T13:42:04.566Z,1.00
2018-12-17T13:44:30.280Z,1.01
2018-12-17T13:46:56.098Z,0.97
2018-12-17T13:49:21.958Z,0.93
2018-12-17T13:51:53.826Z,0.95
2018-12-17T13:54:19.546Z,0.99
2018-12-17T13:56:45.271Z,0.95
2018-12-17T13:59:11.017Z,0.99
2018-12-17T14:01:36.735Z,0.91
2018-12-17T14:04:02.574Z,0.81
2018-12-17T14:06:28.382Z,0.79
2018-12-17T14:08:54.205Z,0.78
2018-12-17T14:11:19.924Z,0.81
2018-12-17T14:13:45.743Z,0.86
2018-12-17T14:16:13.474Z,0.85
2018-12-17T14:18:45.357Z,0.88
2018-12-17T14:21:17.192Z,0.83
2018-12-17T14:23:42.918Z,0.79
2018-12-17T14:26:08.765Z,0.75
2018-12-17T14:28:34.485Z,0.79
2018-12-17T14:31:00.298Z,0.71
2018-12-17T14:33:26.011Z,0.71
2018-12-17T14:35:57.845Z,0.71
2018-12-17T14:38:23.604Z,0.70
2018-12-17T14:40:49.435Z,0.78
2018-12-17T14:43:15.307Z,0.81
2018-12-17T14:45:41.097Z,0.83
2018-12-17T14:48:06.935Z,0.83
2018-12-17T14:50:32.734Z,0.83
2018-12-17T14:53:05.490Z,0.86
2018-12-17T14:55:31.214Z,0.88
2018-12-17T14:57:57.030Z,0.85
2018-12-17T15:00:22.858Z,0.80
2018-12-17T15:02:48.590Z,0.81
2018-12-17T15:05:14.311Z,0.88
2018-12-17T15:07:40.020Z,0.86
2018-12-17T15:10:06.044Z,0.83
2018-12-17T15:12:31.855Z,0.88
2018-12-17T15:14:57.570Z,0.92
2018-12-17T15:17:23.374Z,0.96
2018-12-17T15:19:49.210Z,0.96
2018-12-17T15:22:15.019Z,0.96
2018-12-17T15:24:40.858Z,0.94
2018-12-17T15:27:06.674Z,0.98
2018-12-17T15:29:32.619Z,0.96
2018-12-17T15:31:58.434Z,0.95
2018-12-17T15:34:24.167Z,0.97
2018-12-17T15:36:49.890Z,0.97
2018-12-17T15:39:15.728Z,0.96
2018-12-17T15:41:41.429Z,1.02
2018-12-17T15:44:07.146Z,1.01
2018-12-17T15:46:32.880Z,0.97
2018-12-17T15:48:58.810Z,0.99
2018-12-17T15:51:24.522Z,0.99
2018-12-17T15:53:50.246Z,0.98
2018-12-17T15:56:15.955Z,0.93
2018-12-17T15:58:41.772Z,0.94
2018-12-17T16:01:07.605Z,0.96
2018-12-17T16:03:33.311Z,0.97
2018-12-17T16:05:59.038Z,0.93
2018-12-17T16:08:31.743Z,0.89
2018-12-17T16:10:57.573Z,0.86
2018-12-17T16:13:23.274Z,0.78
2018-12-17T16:15:49.098Z,0.85
2018-12-17T16:18:14.903Z,0.84
2018-12-17T16:20:40.658Z,0.78
2018-12-17T16:23:06.442Z,0.82
2018-12-17T16:25:32.366Z,0.82
2018-12-17T16:27:58.066Z,0.85
2018-12-17T16:30:23.782Z,0.85
2018-12-17T16:32:49.603Z,0.93
2018-12-17T16:35:15.322Z,0.94
2018-12-17T16:37:47.951Z,0.91
2018-12-17T16:40:13.793Z,0.90
2018-12-17T16:42:39.670Z,0.88
2018-12-17T16:45:06.602Z,0.93
2018-12-17T16:47:32.421Z,0.96
2018-12-17T16:49:58.178Z,1.02
2018-12-17T16:52:24.002Z,1.04
2018-12-17T16:54:49.714Z,1.04
2018-12-17T16:57:15.425Z,1.05
2018-12-17T16:59:41.145Z,1.04
2018-12-17T17:02:06.969Z,1.07
2018-12-17T17:04:32.678Z,1.03
2018-12-17T17:06:58.393Z,1.00
2018-12-17T17:09:24.214Z,1.07
2018-12-17T17:11:50.134Z,1.06
2018-12-17T17:14:15.842Z,1.11
2018-12-17T17:16:41.692Z,1.11
2018-12-17T17:19:07.516Z,1.16
2018-12-17T17:21:33.234Z,1.21
2018-12-17T17:23:59.051Z,1.20
2018-12-17T17:26:24.776Z,1.22
2018-12-17T17:28:50.588Z,1.15
2018-12-17T17:31:16.321Z,1.19
2018-12-17T17:33:49.006Z,1.18
2018-12-17T17:36:21.722Z,1.18
2018-12-17T17:38:47.439Z,1.22
2018-12-17T17:41:13.146Z,1.05
2018-12-17T17:43:38.850Z,1.15
2018-12-17T17:46:04.680Z,1.13
2018-12-17T17:48:30.403Z,1.15
2018-12-17T17:50:56.263Z,1.17
2018-12-17T17:53:22.191Z,1.12
2018-12-17T17:55:47.931Z,1.17
2018-12-17T17:58:13.661Z,1.19
2018-12-17T18:00:39.382Z,1.14
2018-12-17T18:03:05.117Z,1.16
2018-12-17T18:05:30.975Z,1.13
2018-12-17T18:07:56.703Z,1.17
2018-12-17T18:10:22.414Z,1.16
2018-12-17T18:12:48.130Z,1.12
2018-12-17T18:15:13.954Z,1.13
2018-12-17T18:17:39.710Z,1.14
2018-12-17T18:20:05.542Z,1.13
2018-12-17T18:22:31.759Z,1.12
2018-12-17T18:24:57.495Z,1.13
2018-12-17T18:27:23.226Z,1.17
2018-12-17T18:29:48.946Z,1.16
2018-12-17T18:32:14.929Z,1.20
2018-12-17T18:34:40.794Z,1.14
2018-12-17T18:37:06.606Z,1.09
2018-12-17T18:39:32.439Z,1.08
2018-12-17T18:41:58.258Z,1.09
2018-12-17T18:44:24.081Z,1.04
2018-12-17T18:46:50.012Z,1.10
2018-12-17T18:49:15.869Z,1.09
2018-12-17T18:51:41.690Z,1.10
2018-12-17T18:54:07.526Z,1.11
2018-12-17T18:56:33.347Z,1.10
2018-12-17T18:58:59.079Z,1.10
2018-12-17T19:01:24.898Z,1.12
2018-12-17T19:03:50.624Z,1.13
2018-12-17T19:06:16.452Z,1.15
2018-12-17T19:08:42.228Z,1.13
2018-12-17T19:11:08.006Z,1.11
2018-12-17T19:13:33.734Z,1.11
2018-12-17T19:15:59.662Z,1.11
2018-12-17T19:18:25.490Z,1.12
2018-12-17T19:20:51.280Z,1.09
2018-12-17T19:23:17.003Z,1.10
2018-12-17T19:25:42.760Z,1.09
2018-12-17T19:28:08.555Z,1.10
2018-12-17T19:30:34.270Z,1.12
2018-12-17T19:33:00.120Z,1.12
2018-12-17T19:35:25.850Z,1.13
2018-12-17T19:37:51.562Z,1.15
2018-12-17T19:40:17.387Z,1.13
2018-12-17T19:42:43.211Z,1.14
2018-12-17T19:45:09.173Z,1.17
2018-12-17T19:47:34.998Z,1.16
2018-12-17T19:50:00.726Z,1.17
2018-12-17T19:52:26.490Z,1.17
2018-12-17T19:54:52.214Z,1.20
2018-12-17T19:57:17.930Z,1.18
2018-12-17T19:59:43.697Z,1.20
2018-12-17T20:02:09.562Z,1.20
2018-12-17T20:04:41.541Z,1.23
2018-12-17T20:07:07.290Z,1.22
2018-12-17T20:09:33.042Z,1.23
2018-12-17T20:11:58.875Z,1.23
2018-12-17T20:14:24.756Z,1.22
2018-12-17T20:16:50.470Z,1.26
2018-12-17T20:19:16.194Z,1.25
2018-12-17T20:21:42.015Z,1.27
2018-12-17T20:24:07.744Z,1.28
2018-12-17T20:26:33.563Z,1.28
2018-12-17T20:28:59.275Z,1.32
2018-12-17T20:31:24.991Z,1.32
2018-12-17T20:33:50.714Z,1.31
2018-12-17T20:36:16.438Z,1.34
2018-12-17T20:38:42.159Z,1.38
2018-12-17T20:41:07.886Z,1.40
2018-12-17T20:43:33.699Z,1.42
2018-12-17T20:45:59.441Z,1.42
2018-12-17T20:48:25.158Z,1.40
2018-12-17T20:50:51.020Z,1.43
2018-12-17T20:53:16.918Z,1.43
2018-12-17T20:55:42.887Z,1.41
2018-12-17T20:58:10.404Z,1.45
2018-12-17T21:00:36.563Z,1.48
2018-12-17T21:03:02.768Z,1.45
2018-12-17T21:05:28.611Z,1.44
2018-12-17T21:07:54.545Z,1.45
2018-12-17T21:10:20.388Z,1.48
2018-12-17T21:12:46.142Z,1.48
2018-12-17T21:15:12.073Z,1.48
2018-12-17T21:17:37.908Z,1.49
2018-12-17T21:20:04.455Z,1.51
2018-12-17T21:22:30.621Z,1.48
2018-12-17T21:24:56.369Z,1.50
2018-12-17T21:27:22.093Z,1.51
2018-12-17T21:29:48.257Z,1.29
2018-12-17T21:32:13.992Z,1.51
2018-12-17T21:34:39.802Z,1.52
2018-12-17T21:37:05.598Z,1.54
2018-12-17T21:39:31.572Z,1.52
2018-12-17T21:41:57.740Z,1.53
2018-12-17T21:44:23.919Z,1.55
2018-12-17T21:46:49.797Z,1.59
2018-12-17T21:49:16.144Z,1.61
2018-12-17T21:51:41.875Z,1.64
2018-12-17T21:54:07.602Z,1.62
2018-12-17T21:56:33.309Z,1.63
2018-12-17T21:58:59.035Z,1.64
2018-12-17T22:01:24.746Z,1.66
2018-12-17T22:03:50.470Z,1.68
2018-12-17T22:06:16.750Z,1.68
2018-12-17T22:08:43.059Z,1.69
2018-12-17T22:11:09.319Z,1.72
2018-12-17T22:13:35.259Z,1.73
2018-12-17T22:16:01.330Z,1.71
2018-12-17T22:18:27.923Z,1.69
2018-12-17T22:20:54.255Z,1.73
2018-12-17T22:23:20.130Z,1.76
2018-12-17T22:25:45.913Z,1.76
2018-12-17T22:28:12.016Z,1.77
2018-12-17T22:30:38.165Z,1.78
2018-12-17T22:33:04.510Z,1.80
2018-12-17T22:35:30.632Z,1.82
2018-12-17T22:37:56.844Z,1.82
2018-12-17T22:40:23.148Z,1.84
2018-12-17T22:42:49.243Z,1.86
2018-12-17T22:45:15.793Z,1.86
2018-12-17T22:47:41.592Z,1.85
2018-12-17T22:50:08.241Z,1.85
2018-12-17T22:52:34.416Z,1.87
2018-12-17T22:55:00.533Z,1.89
2018-12-17T22:57:26.581Z,1.89
2018-12-17T22:59:52.577Z,1.91
2018-12-17T23:02:18.837Z,1.90
2018-12-17T23:04:45.970Z,1.92
2018-12-17T23:07:12.410Z,1.96
2018-12-17T23:09:50.738Z,1.94
2018-12-17T23:12:29.057Z,1.97
2018-12-17T23:15:07.272Z,2.01
2018-12-17T23:17:38.786Z,1.99
2018-12-17T23:20:05.883Z,2.03
2018-12-17T23:22:31.797Z,1.97
2018-12-17T23:24:57.566Z,2.06
2018-12-17T23:27:23.398Z,2.09
2018-12-17T23:29:49.496Z,2.08
2018-12-17T23:32:15.504Z,2.12
2018-12-17T23:34:41.326Z,2.13
2018-12-17T23:37:07.043Z,2.15
2018-12-17T23:39:33.284Z,2.18
2018-12-17T23:42:00.646Z,2.20
2018-12-17T23:44:26.504Z,2.23
2018-12-17T23:46:52.441Z,2.27
2018-12-17T23:49:18.153Z,2.32
2018-12-17T23:51:43.984Z,2.43
2018-12-17T23:54:09.798Z,2.46
2018-12-17T23:56:35.505Z,2.50
2018-12-17T23:59:01.222Z,2.53
